Time;durP1;ratioP1;P1;durP2;ratioP2;P2;SDS_P1;SDS_P2;PMS_P1;PMS_P2;Temp;Humidity;BMP_temperature;BMP_pressure;BME280_temperature;BME280_humidity;BME280_pressure;Samples;Min_cycle;Max_cycle;Signal;HPM_P1;HPM_P2
2022/12/29 00:00:07;;;;;;;0.70;0.63;;;10.10;99.90;;;;;;5027425;28;20120;-69
2022/12/29 00:02:32;;;;;;;1.83;1.20;;;10.10;99.90;;;;;;5027748;28;20033;-69
2022/12/29 00:04:58;;;;;;;0.50;0.50;;;10.20;99.90;;;;;;5024545;28;20034;-68
2022/12/29 00:07:23;;;;;;;0.47;0.47;;;10.20;99.90;;;;;;5027358;28;20104;-68
2022/12/29 00:09:49;;;;;;;0.98;0.63;;;10.20;99.90;;;;;;5029835;28;20568;-68
2022/12/29 00:12:14;;;;;;;0.50;0.50;;;10.30;99.90;;;;;;5028372;28;20449;-68
2022/12/29 00:17:24;;;;;;;;;;;10.20;99.90;;;;;;5030871;28;20152;-66
2022/12/29 00:36:34;;;;;;;0.55;0.55;;;10.10;99.90;;;;;;5022742;28;20403;-67
2022/12/29 00:44:32;;;;;;;;;;;10.20;99.90;;;;;;5031392;28;20036;-67
2022/12/29 00:47:02;;;;;;;0.60;0.57;;;10.20;99.90;;;;;;5026870;28;19991;-67
2022/12/29 00:49:31;;;;;;;0.50;0.50;;;10.30;99.90;;;;;;5029945;28;20405;-66
2022/12/29 00:52:08;;;;;;;0.70;0.60;;;10.30;99.90;;;;;;5014598;28;20057;-66
2022/12/29 00:54:36;;;;;;;0.57;0.50;;;10.40;99.90;;;;;;5028406;28;20029;-66
2022/12/29 00:57:03;;;;;;;0.57;0.50;;;10.40;99.90;;;;;;5028877;28;20033;-66
2022/12/29 00:59:28;;;;;;;0.45;0.40;;;10.40;99.90;;;;;;5029654;28;20407;-67
2022/12/29 01:01:55;;;;;;;0.43;0.43;;;10.40;99.90;;;;;;5029796;28;20024;-66
2022/12/29 01:04:23;;;;;;;0.65;0.40;;;10.40;99.90;;;;;;5020051;28;20108;-66
2022/12/29 01:06:49;;;;;;;0.70;0.40;;;10.40;99.90;;;;;;5022119;28;20518;-66
2022/12/29 01:12:00;;;;;;;0.47;0.47;;;10.40;99.90;;;;;;5028746;28;20039;-66
2022/12/29 01:14:33;;;;;;;0.50;0.50;;;10.50;99.90;;;;;;5066614;28;20414;-67
2022/12/29 01:16:58;;;;;;;0.30;0.30;;;10.50;99.90;;;;;;5065885;28;20029;-66
2022/12/29 01:19:24;;;;;;;0.70;0.57;;;10.50;99.90;;;;;;5055108;28;20415;-66
2022/12/29 01:21:50;;;;;;;0.60;0.60;;;10.50;99.90;;;;;;5046908;28;20030;-67
2022/12/29 01:24:17;;;;;;;0.55;0.38;;;10.50;99.90;;;;;;5049724;28;20677;-67
2022/12/29 01:26:43;;;;;;;0.55;0.55;;;10.40;99.90;;;;;;5028818;28;20132;-67
2022/12/29 01:29:09;;;;;;;4.30;0.70;;;10.50;99.90;;;;;;5027001;28;20108;-67
2022/12/29 01:31:34;;;;;;;2.40;0.60;;;10.40;99.90;;;;;;5024014;28;20034;-67
2022/12/29 01:34:01;;;;;;;0.73;0.50;;;10.40;99.90;;;;;;5035370;28;20025;-67
2022/12/29 01:36:26;;;;;;;0.50;0.50;;;10.30;99.90;;;;;;5021680;28;20038;-67
2022/12/29 01:38:52;;;;;;;1.45;0.40;;;10.30;99.90;;;;;;5027967;28;20095;-67
2022/12/29 01:41:18;;;;;;;1.00;0.50;;;10.30;99.90;;;;;;5028748;28;20040;-67
2022/12/29 01:43:50;;;;;;;0.82;0.82;;;10.40;99.90;;;;;;5025954;28;20022;-67
2022/12/29 01:46:38;;;;;;;0.30;0.30;;;10.40;99.90;;;;;;5021157;28;20391;-67
2022/12/29 01:49:24;;;;;;;0.30;0.30;;;10.40;99.90;;;;;;5026738;28;20029;-67
2022/12/29 01:51:49;;;;;;;0.63;0.50;;;10.40;99.90;;;;;;5020478;28;20573;-67
2022/12/29 01:54:38;;;;;;;0.43;0.40;;;10.50;99.90;;;;;;5027102;28;20034;-67
2022/12/29 01:57:09;;;;;;;1.20;0.40;;;10.50;99.90;;;;;;5026081;28;20029;-67
2022/12/29 01:59:42;;;;;;;0.52;0.40;;;10.60;99.90;;;;;;5025881;28;20443;-67
2022/12/29 02:02:08;;;;;;;0.63;0.52;;;10.60;99.90;;;;;;5025038;28;20450;-68
2022/12/29 02:04:37;;;;;;;1.10;0.50;;;10.60;99.90;;;;;;5025195;28;20089;-67
2022/12/29 02:07:16;;;;;;;0.32;0.32;;;10.70;99.90;;;;;;5025661;28;20641;-67
2022/12/29 02:09:43;;;;;;;0.68;0.50;;;10.70;99.90;;;;;;5022691;28;20026;-67
2022/12/29 02:12:09;;;;;;;0.40;0.40;;;10.60;99.90;;;;;;5025930;28;20052;-66
2022/12/29 02:14:35;;;;;;;0.60;0.60;;;10.60;99.90;;;;;;5027140;28;20032;-67
2022/12/29 02:17:22;;;;;;;0.90;0.50;;;10.50;99.90;;;;;;5028853;28;20026;-67
2022/12/29 02:20:06;;;;;;;0.93;0.50;;;10.50;99.90;;;;;;5016776;28;20076;-68
2022/12/29 02:22:42;;;;;;;0.52;0.50;;;10.50;99.90;;;;;;5030327;28;20033;-67
2022/12/29 02:25:53;;;;;;;0.77;0.50;;;10.50;99.90;;;;;;5020372;28;20156;-67
2022/12/29 02:28:33;;;;;;;5.03;0.65;;;10.50;99.90;;;;;;4995077;28;20049;-68
2022/12/29 02:31:25;;;;;;;0.80;0.60;;;10.50;99.90;;;;;;5034655;28;20368;-67
2022/12/29 02:34:04;;;;;;;2.30;0.47;;;10.50;99.90;;;;;;5008756;28;20029;-67
2022/12/29 02:36:42;;;;;;;2.65;0.75;;;10.50;99.90;;;;;;5014291;28;20062;-68
2022/12/29 02:39:44;;;;;;;0.60;0.60;;;10.40;99.90;;;;;;5015677;28;20021;-68
2022/12/29 02:42:44;;;;;;;1.85;0.63;;;10.50;99.90;;;;;;5015043;28;20042;-68
2022/12/29 02:45:24;;;;;;;0.50;0.50;;;10.50;99.90;;;;;;5012874;28;20036;-67
2022/12/29 02:48:10;;;;;;;1.65;0.50;;;10.50;99.90;;;;;;5000632;28;20025;-67
2022/12/29 02:50:43;;;;;;;2.63;0.60;;;10.50;99.90;;;;;;5006553;28;21838;-68
2022/12/29 02:53:13;;;;;;;0.50;0.50;;;10.60;99.90;;;;;;5008761;28;20034;-66
2022/12/29 02:55:41;;;;;;;1.30;0.70;;;10.60;99.90;;;;;;5004199;28;20041;-68
2022/12/29 02:58:21;;;;;;;1.33;0.63;;;10.70;99.90;;;;;;5001981;28;20030;-67
2022/12/29 03:01:17;;;;;;;0.50;0.50;;;10.60;99.90;;;;;;5002290;28;20038;-67
2022/12/29 03:03:43;;;;;;;0.85;0.70;;;10.60;99.90;;;;;;4999761;28;20036;-66
2022/12/29 03:06:51;;;;;;;2.78;0.63;;;10.70;99.90;;;;;;5003836;28;20030;-67
2022/12/29 03:09:43;;;;;;;0.63;0.60;;;10.60;99.90;;;;;;5002312;28;20499;-67
2022/12/29 03:12:21;;;;;;;2.40;0.60;;;10.70;99.90;;;;;;5018443;28;20065;-68
2022/12/29 03:17:53;;;;;;;1.38;0.60;;;10.70;99.90;;;;;;5013147;28;20024;-68
2022/12/29 03:20:27;;;;;;;0.70;0.70;;;10.70;99.90;;;;;;5026679;28;20052;-67
2022/12/29 03:23:00;;;;;;;0.57;0.57;;;10.80;99.90;;;;;;5010807;28;20398;-67
2022/12/29 03:25:30;;;;;;;0.50;0.50;;;10.80;99.90;;;;;;5023181;28;20503;-67
2022/12/29 03:28:00;;;;;;;4.78;0.73;;;10.80;99.90;;;;;;4994256;28;20055;-67
2022/12/29 03:30:29;;;;;;;2.53;0.47;;;10.80;99.90;;;;;;5006840;28;20037;-66
2022/12/29 03:32:58;;;;;;;0.68;0.60;;;10.80;99.90;;;;;;5010632;28;20561;-67
2022/12/29 03:35:27;;;;;;;1.85;0.95;;;10.80;99.90;;;;;;4995442;28;20088;-66
2022/12/29 03:37:59;;;;;;;2.10;0.88;;;10.80;99.90;;;;;;4985345;28;20061;-67
2022/12/29 03:40:27;;;;;;;0.95;0.70;;;10.80;99.90;;;;;;4996133;28;20117;-67
2022/12/29 03:42:54;;;;;;;0.50;0.45;;;10.80;99.90;;;;;;4997066;28;20029;-67
2022/12/29 03:45:20;;;;;;;0.98;0.57;;;10.80;99.90;;;;;;5001446;28;20038;-67
2022/12/29 03:47:46;;;;;;;1.23;1.13;;;10.80;99.90;;;;;;5000031;28;20034;-66
2022/12/29 03:50:13;;;;;;;0.80;0.65;;;10.80;99.90;;;;;;5001024;28;20524;-67
2022/12/29 03:52:38;;;;;;;1.65;0.55;;;10.80;99.90;;;;;;5010001;28;20056;-67
2022/12/29 03:55:04;;;;;;;0.82;0.70;;;10.80;99.90;;;;;;5008056;28;20030;-67
2022/12/29 03:57:30;;;;;;;0.75;0.50;;;10.80;99.90;;;;;;4999181;28;20054;-68
2022/12/29 03:59:55;;;;;;;0.45;0.45;;;10.80;99.90;;;;;;5000958;28;20514;-67
2022/12/29 04:02:21;;;;;;;0.65;0.45;;;10.80;99.90;;;;;;5000630;28;20037;-67
2022/12/29 04:04:47;;;;;;;1.00;0.63;;;10.90;99.90;;;;;;5000214;28;20022;-67
2022/12/29 04:07:13;;;;;;;0.50;0.50;;;10.90;99.90;;;;;;5000724;28;20030;-67
2022/12/29 04:09:38;;;;;;;0.75;0.65;;;10.90;99.90;;;;;;5011112;28;20391;-66
2022/12/29 04:12:04;;;;;;;2.00;0.60;;;10.90;99.90;;;;;;5014084;28;20505;-66
2022/12/29 04:14:29;;;;;;;1.10;0.77;;;10.80;99.90;;;;;;5012930;28;20037;-67
2022/12/29 04:16:55;;;;;;;2.92;1.08;;;10.80;99.90;;;;;;5017468;28;20029;-65
2022/12/29 04:19:21;;;;;;;0.90;0.80;;;10.80;99.90;;;;;;4994121;28;20038;-67
2022/12/29 04:21:46;;;;;;;0.68;0.68;;;10.80;99.90;;;;;;5002485;28;20053;-65
2022/12/29 04:24:12;;;;;;;0.70;0.70;;;10.80;99.90;;;;;;5010790;28;20546;-66
2022/12/29 04:26:38;;;;;;;0.70;0.70;;;10.80;99.90;;;;;;5017068;28;20026;-66
2022/12/29 04:29:04;;;;;;;0.50;0.50;;;10.80;99.90;;;;;;4994269;28;20407;-67
2022/12/29 04:31:29;;;;;;;0.80;0.80;;;10.80;99.90;;;;;;4998252;28;20033;-66
2022/12/29 04:33:57;;;;;;;0.70;0.70;;;10.80;99.90;;;;;;4998317;28;20034;-66
2022/12/29 04:36:23;;;;;;;4.00;0.68;;;10.80;99.90;;;;;;4999776;28;20137;-67
2022/12/29 04:38:48;;;;;;;1.05;0.50;;;10.80;99.90;;;;;;4999946;28;20026;-64
2022/12/29 04:41:14;;;;;;;0.60;0.60;;;10.70;99.90;;;;;;5000751;28;20075;-65
2022/12/29 04:43:39;;;;;;;1.13;0.65;;;10.80;99.90;;;;;;5000587;28;20025;-66
2022/12/29 04:46:05;;;;;;;0.55;0.50;;;10.80;99.90;;;;;;5003200;28;20056;-68
2022/12/29 04:48:31;;;;;;;1.27;0.50;;;10.70;99.90;;;;;;5000149;28;20037;-66
2022/12/29 04:50:56;;;;;;;0.90;0.90;;;10.60;99.90;;;;;;4998896;28;20037;-67
2022/12/29 04:53:22;;;;;;;0.90;0.50;;;10.70;99.90;;;;;;5000082;28;20038;-66
2022/12/29 04:55:51;;;;;;;1.27;0.38;;;10.70;99.90;;;;;;5004894;28;20068;-66
2022/12/29 04:58:18;;;;;;;2.38;0.73;;;10.70;99.90;;;;;;5010339;28;20491;-65
2022/12/29 05:00:43;;;;;;;0.52;0.52;;;10.60;99.90;;;;;;5000573;28;20029;-65
2022/12/29 05:03:09;;;;;;;1.17;0.70;;;10.60;99.90;;;;;;4998242;28;20034;-66
2022/12/29 05:05:34;;;;;;;0.80;0.52;;;10.60;99.90;;;;;;5002269;28;20050;-66
2022/12/29 05:08:00;;;;;;;1.50;0.70;;;10.60;99.90;;;;;;4998163;28;20490;-65
2022/12/29 05:10:25;;;;;;;0.60;0.60;;;10.60;99.90;;;;;;5010068;28;20411;-66
2022/12/29 05:12:51;;;;;;;0.85;0.85;;;10.50;99.90;;;;;;5014773;28;20052;-67
2022/12/29 05:15:17;;;;;;;3.13;0.60;;;10.50;99.90;;;;;;5010295;28;20494;-67
2022/12/29 05:17:43;;;;;;;0.70;0.70;;;10.40;99.90;;;;;;5013438;28;20238;-66
2022/12/29 05:20:09;;;;;;;0.60;0.50;;;10.40;99.90;;;;;;5013072;28;20029;-65
2022/12/29 05:22:34;;;;;;;2.03;0.90;;;10.40;99.90;;;;;;5013613;28;20029;-66
2022/12/29 05:25:00;;;;;;;0.70;0.60;;;10.30;99.90;;;;;;5013373;28;20026;-66
2022/12/29 05:27:25;;;;;;;0.70;0.50;;;10.20;99.90;;;;;;4998110;28;20077;-67
2022/12/29 05:29:51;;;;;;;0.50;0.50;;;10.20;99.90;;;;;;5015508;28;20026;-66
2022/12/29 05:32:17;;;;;;;0.95;0.77;;;10.20;99.90;;;;;;5022173;28;20033;-66
2022/12/29 05:34:42;;;;;;;1.13;0.60;;;10.20;99.90;;;;;;4999904;28;20033;-66
2022/12/29 05:37:08;;;;;;;0.50;0.45;;;10.20;99.90;;;;;;4998311;28;20110;-66
2022/12/29 05:39:33;;;;;;;2.15;0.77;;;10.20;99.90;;;;;;4998149;28;20553;-66
2022/12/29 05:41:59;;;;;;;0.57;0.40;;;10.20;99.90;;;;;;4998975;28;20038;-66
2022/12/29 05:44:24;;;;;;;1.50;0.50;;;10.20;99.90;;;;;;5000472;28;20057;-67
2022/12/29 05:46:50;;;;;;;1.10;0.70;;;10.30;99.90;;;;;;5004494;28;20931;-66
2022/12/29 05:49:16;;;;;;;0.50;0.50;;;10.40;99.90;;;;;;4998835;28;20116;-67
2022/12/29 05:51:42;;;;;;;0.50;0.50;;;10.40;99.90;;;;;;4997940;28;20037;-67
2022/12/29 05:54:07;;;;;;;0.82;0.68;;;10.50;99.90;;;;;;4998805;28;20038;-67
2022/12/29 05:56:33;;;;;;;0.80;0.50;;;10.50;99.90;;;;;;5000635;28;20525;-67
2022/12/29 05:58:58;;;;;;;1.60;0.52;;;10.50;99.90;;;;;;4999899;28;20133;-67
2022/12/29 06:01:24;;;;;;;1.67;0.50;;;10.50;99.90;;;;;;5002096;28;20109;-67
2022/12/29 06:03:50;;;;;;;0.40;0.40;;;10.50;99.90;;;;;;5002082;28;20175;-67
2022/12/29 06:06:15;;;;;;;0.43;0.43;;;10.50;99.90;;;;;;5015637;28;20060;-68
2022/12/29 06:08:41;;;;;;;0.43;0.40;;;10.50;99.90;;;;;;5013009;28;20033;-67
2022/12/29 06:11:07;;;;;;;1.50;0.70;;;10.40;99.90;;;;;;5012894;28;20021;-68
2022/12/29 06:13:32;;;;;;;0.40;0.40;;;10.40;99.90;;;;;;5013228;28;20037;-68
2022/12/29 06:15:58;;;;;;;0.60;0.60;;;10.50;99.90;;;;;;4997052;28;20611;-67
2022/12/29 06:18:23;;;;;;;0.80;0.77;;;10.50;99.90;;;;;;5005185;28;20030;-67
2022/12/29 06:20:49;;;;;;;1.10;0.65;;;10.50;99.90;;;;;;5001735;28;20411;-65
2022/12/29 06:23:16;;;;;;;0.60;0.60;;;10.50;99.90;;;;;;5001126;28;20041;-67
2022/12/29 06:25:41;;;;;;;2.58;0.70;;;10.40;99.90;;;;;;4999830;28;20045;-67
2022/12/29 06:28:07;;;;;;;1.08;0.60;;;10.40;99.90;;;;;;4989710;28;20046;-66
2022/12/29 06:30:33;;;;;;;0.38;0.35;;;10.40;99.90;;;;;;5001163;28;20113;-67
2022/12/29 06:32:59;;;;;;;0.65;0.43;;;10.40;99.90;;;;;;4998970;28;20765;-66
2022/12/29 06:35:25;;;;;;;0.68;0.50;;;10.40;99.90;;;;;;5001521;28;20038;-66
2022/12/29 06:37:51;;;;;;;0.85;0.60;;;10.40;99.90;;;;;;4998473;28;20490;-66
2022/12/29 06:40:16;;;;;;;1.60;0.70;;;10.40;99.90;;;;;;4999921;28;20794;-67
2022/12/29 06:42:42;;;;;;;1.00;0.75;;;10.40;99.90;;;;;;4999325;28;20060;-67
2022/12/29 06:45:08;;;;;;;0.57;0.50;;;10.30;99.90;;;;;;5001418;28;20074;-66
2022/12/29 06:47:35;;;;;;;0.77;0.68;;;10.30;99.90;;;;;;5021390;28;20029;-67
2022/12/29 06:50:01;;;;;;;7.78;4.25;;;10.30;99.90;;;;;;5011455;28;20029;-66
2022/12/29 06:52:28;;;;;;;95.55;46.83;;;10.30;99.90;;;;;;4999917;28;20102;-68
2022/12/29 06:54:54;;;;;;;99.35;47.25;;;10.30;99.90;;;;;;4993291;28;20419;-67
2022/12/29 06:57:20;;;;;;;69.03;36.72;;;10.20;99.90;;;;;;5003012;28;20034;-67
2022/12/29 06:59:45;;;;;;;11.05;6.80;;;10.20;99.90;;;;;;5002733;28;20034;-67
2022/12/29 07:02:11;;;;;;;3.05;1.58;;;10.20;99.90;;;;;;5002187;28;20101;-68
2022/12/29 07:04:37;;;;;;;7.88;1.25;;;10.20;99.90;;;;;;5002407;28;20041;-67
2022/12/29 07:07:03;;;;;;;1.67;1.05;;;10.20;99.90;;;;;;5000243;28;20324;-66
2022/12/29 07:09:28;;;;;;;4.55;2.47;;;10.20;99.90;;;;;;5000388;28;20030;-67
2022/12/29 07:11:54;;;;;;;2.92;0.82;;;10.20;99.90;;;;;;5014003;28;20026;-67
2022/12/29 07:14:20;;;;;;;3.03;0.95;;;10.30;99.90;;;;;;5005809;28;20030;-68
2022/12/29 07:16:45;;;;;;;2.10;0.98;;;10.30;99.90;;;;;;5000869;28;20026;-67
2022/12/29 07:19:11;;;;;;;0.77;0.77;;;10.30;99.90;;;;;;5006526;28;20065;-66
2022/12/29 07:21:36;;;;;;;5.28;1.40;;;10.40;99.90;;;;;;5001831;28;20025;-66
2022/12/29 07:24:02;;;;;;;0.98;0.80;;;10.40;99.90;;;;;;5001175;28;20029;-67
2022/12/29 07:26:28;;;;;;;1.17;0.40;;;10.40;99.90;;;;;;5000239;28;20034;-67
2022/12/29 07:28:54;;;;;;;0.90;0.50;;;10.40;99.90;;;;;;4986261;28;20050;-67
2022/12/29 07:31:22;;;;;;;0.82;0.60;;;10.40;99.90;;;;;;5005705;28;20117;-67
2022/12/29 07:33:48;;;;;;;0.40;0.40;;;10.40;99.90;;;;;;5001754;28;20041;-67
2022/12/29 07:36:15;;;;;;;0.55;0.40;;;10.30;99.90;;;;;;5002145;28;20022;-67
2022/12/29 07:38:41;;;;;;;1.10;0.40;;;10.30;99.90;;;;;;5000001;28;20117;-66
2022/12/29 07:41:07;;;;;;;1.75;0.50;;;10.40;99.90;;;;;;5000279;28;20033;-67
2022/12/29 07:43:33;;;;;;;0.50;0.50;;;10.30;99.90;;;;;;5001276;28;20037;-67
2022/12/29 07:45:58;;;;;;;3.03;0.50;;;10.30;99.90;;;;;;5015715;28;20030;-66
2022/12/29 07:48:24;;;;;;;2.40;0.43;;;10.30;99.90;;;;;;5001306;28;20113;-67
2022/12/29 07:50:50;;;;;;;3.30;1.10;;;10.40;99.90;;;;;;5001017;28;20029;-67
2022/12/29 07:53:16;;;;;;;31.00;22.98;;;10.40;99.90;;;;;;5001028;28;20029;-67
2022/12/29 07:55:41;;;;;;;3.15;2.85;;;10.40;99.90;;;;;;5001778;28;20429;-68
2022/12/29 07:58:07;;;;;;;6.22;2.83;;;10.40;99.90;;;;;;4999328;28;20104;-68
2022/12/29 08:00:33;;;;;;;7.03;4.07;;;10.40;99.90;;;;;;5011510;28;20179;-66
2022/12/29 08:02:59;;;;;;;12.80;7.03;;;10.40;99.90;;;;;;5018461;28;20026;-66
2022/12/29 08:05:25;;;;;;;10.15;4.35;;;10.40;99.90;;;;;;5011275;28;20055;-67
2022/12/29 08:07:50;;;;;;;7.13;3.42;;;10.40;99.90;;;;;;5010479;28;20037;-67
2022/12/29 08:10:16;;;;;;;3.92;1.67;;;10.40;99.90;;;;;;5010653;28;20049;-68
2022/12/29 08:12:42;;;;;;;6.53;2.83;;;10.40;99.90;;;;;;5006730;28;20041;-68
2022/12/29 08:15:09;;;;;;;6.07;3.00;;;10.30;99.90;;;;;;5004407;28;20037;-67
2022/12/29 08:17:35;;;;;;;10.85;4.43;;;10.40;99.90;;;;;;5000608;28;20025;-67
2022/12/29 08:20:01;;;;;;;6.75;3.90;;;10.30;99.90;;;;;;5006735;28;20483;-67
2022/12/29 08:22:27;;;;;;;12.20;4.00;;;10.30;99.90;;;;;;5001049;28;20782;-67
2022/12/29 08:24:52;;;;;;;6.38;3.05;;;10.40;99.90;;;;;;4999882;28;20799;-67
2022/12/29 08:27:18;;;;;;;4.13;1.92;;;10.40;99.90;;;;;;5002859;28;20026;-67
2022/12/29 08:29:43;;;;;;;5.45;2.65;;;10.40;99.90;;;;;;4991074;28;20499;-67
2022/12/29 08:32:09;;;;;;;5.30;2.58;;;10.40;99.90;;;;;;4999946;28;20161;-67
2022/12/29 08:34:35;;;;;;;1.17;0.98;;;10.40;99.90;;;;;;4999510;28;20558;-67
2022/12/29 08:37:00;;;;;;;1.23;1.05;;;10.30;99.90;;;;;;4999386;28;20491;-67
2022/12/29 08:39:26;;;;;;;1.33;0.43;;;10.30;99.90;;;;;;5001606;28;20029;-66
2022/12/29 08:41:52;;;;;;;0.63;0.50;;;10.30;99.90;;;;;;4998407;28;20018;-66
2022/12/29 08:44:18;;;;;;;2.10;0.85;;;10.30;99.90;;;;;;5000620;28;20484;-67
2022/12/29 08:46:43;;;;;;;2.30;1.58;;;10.30;99.90;;;;;;5017143;28;20026;-68
2022/12/29 08:49:09;;;;;;;3.95;0.90;;;10.30;99.90;;;;;;5021661;28;20120;-67
2022/12/29 08:51:34;;;;;;;2.08;0.80;;;10.30;99.90;;;;;;5008947;28;20030;-67
2022/12/29 08:54:00;;;;;;;3.17;1.60;;;10.30;99.90;;;;;;5008125;28;20412;-66
2022/12/29 08:56:26;;;;;;;3.80;1.10;;;10.30;99.90;;;;;;5006252;28;20049;-67
2022/12/29 08:58:52;;;;;;;4.57;1.10;;;10.30;99.90;;;;;;5013817;28;20053;-68
2022/12/29 09:01:18;;;;;;;3.50;1.15;;;10.30;99.90;;;;;;5011474;28;20026;-67
2022/12/29 09:03:44;;;;;;;3.88;0.80;;;10.40;99.90;;;;;;5013508;28;20521;-68
2022/12/29 09:06:09;;;;;;;3.28;0.70;;;10.40;99.90;;;;;;5009798;28;20030;-67
2022/12/29 09:08:35;;;;;;;4.63;0.82;;;10.40;99.90;;;;;;5012442;28;20033;-68
2022/12/29 09:11:09;;;;;;;6.05;0.80;;;10.40;99.90;;;;;;5013049;28;20113;-68
2022/12/29 09:13:35;;;;;;;1.77;0.75;;;10.30;99.90;;;;;;5006586;28;20025;-68
2022/12/29 09:16:00;;;;;;;1.17;0.50;;;10.40;99.90;;;;;;5006345;28;20021;-67
2022/12/29 09:18:26;;;;;;;3.38;0.80;;;10.40;99.90;;;;;;4998156;28;20029;-67
2022/12/29 09:20:59;;;;;;;3.15;1.00;;;10.40;99.90;;;;;;5000211;28;20065;-67
2022/12/29 09:23:26;;;;;;;3.30;1.08;;;10.40;99.90;;;;;;4994347;28;20121;-67
2022/12/29 09:25:52;;;;;;;5.72;1.13;;;10.30;99.90;;;;;;4999518;28;20033;-67
2022/12/29 09:28:18;;;;;;;1.00;0.70;;;10.30;99.90;;;;;;4983266;28;20100;-69
2022/12/29 09:30:43;;;;;;;2.95;0.77;;;10.30;99.90;;;;;;4999006;28;20474;-67
2022/12/29 09:33:09;;;;;;;5.38;1.38;;;10.30;99.90;;;;;;4998279;28;20407;-67
2022/12/29 09:35:35;;;;;;;3.97;1.27;;;10.30;99.90;;;;;;5004217;28;20348;-67
2022/12/29 09:38:00;;;;;;;2.55;0.85;;;10.40;99.90;;;;;;5010782;28;20038;-67
2022/12/29 09:40:30;;;;;;;10.43;1.10;;;10.40;99.90;;;;;;5002834;28;20022;-67
2022/12/29 09:43:24;;;;;;;3.55;0.80;;;10.40;99.90;;;;;;5001491;28;20035;-67
2022/12/29 09:46:04;;;;;;;0.57;0.55;;;10.40;99.90;;;;;;5001652;28;20097;-68
2022/12/29 09:48:34;;;;;;;2.85;0.85;;;10.40;99.90;;;;;;5002097;28;20742;-67
2022/12/29 09:51:05;;;;;;;3.22;0.93;;;10.40;99.90;;;;;;5003504;28;20052;-68
2022/12/29 09:53:46;;;;;;;2.63;1.00;;;10.50;99.90;;;;;;5001298;28;20519;-68
2022/12/29 09:56:17;;;;;;;7.72;1.20;;;10.50;99.90;;;;;;5000951;28;20058;-69
2022/12/29 09:59:00;;;;;;;4.15;0.90;;;10.60;99.90;;;;;;5001482;28;20033;-67
2022/12/29 10:01:29;;;;;;;4.78;1.00;;;10.60;99.90;;;;;;5001293;28;20914;-68
2022/12/29 10:03:57;;;;;;;3.22;0.98;;;10.60;99.90;;;;;;5002509;28;20149;-69
2022/12/29 10:06:56;;;;;;;3.30;1.65;;;10.60;99.90;;;;;;5007387;28;20062;-67
2022/12/29 10:09:49;;;;;;;5.18;1.00;;;10.70;99.90;;;;;;5023051;28;20053;-68
2022/12/29 10:12:36;;;;;;;4.00;1.13;;;10.70;99.90;;;;;;5008807;28;20121;-68
2022/12/29 10:15:30;;;;;;;4.10;1.90;;;10.70;99.90;;;;;;5020688;28;20384;-67
2022/12/29 10:18:24;;;;;;;2.10;1.17;;;10.70;99.90;;;;;;5001482;28;20034;-68
2022/12/29 10:20:57;;;;;;;1.70;1.02;;;10.70;99.90;;;;;;4999898;28;20100;-67
2022/12/29 10:23:28;;;;;;;8.23;0.93;;;10.80;99.90;;;;;;5002080;28;20054;-67
2022/12/29 10:25:59;;;;;;;4.32;1.10;;;10.70;99.90;;;;;;5000414;28;20049;-67
2022/12/29 10:28:42;;;;;;;5.63;2.15;;;10.70;99.90;;;;;;4984533;28;20045;-68
2022/12/29 10:31:21;;;;;;;8.07;1.25;;;10.80;99.90;;;;;;5004159;28;20026;-68
2022/12/29 10:33:53;;;;;;;7.20;1.50;;;10.80;99.90;;;;;;5002050;28;20038;-67
2022/12/29 10:36:30;;;;;;;19.13;4.65;;;10.80;99.90;;;;;;5001385;28;20018;-67
2022/12/29 10:39:19;;;;;;;5.40;2.28;;;10.90;99.90;;;;;;5000671;28;20045;-67
2022/12/29 10:41:56;;;;;;;8.70;3.08;;;11.00;99.90;;;;;;5002130;28;20025;-68
2022/12/29 10:44:30;;;;;;;11.00;3.50;;;11.00;99.90;;;;;;4999282;28;20030;-67
2022/12/29 10:47:00;;;;;;;13.85;4.72;;;11.00;99.90;;;;;;5008877;28;20502;-67
2022/12/29 10:49:28;;;;;;;7.07;2.38;;;11.10;99.90;;;;;;5007911;28;20436;-68
2022/12/29 10:51:58;;;;;;;9.68;3.30;;;11.00;99.90;;;;;;5012371;28;20100;-68
2022/12/29 10:54:33;;;;;;;11.63;3.50;;;11.10;99.90;;;;;;5013960;28;20069;-67
2022/12/29 10:57:20;;;;;;;10.40;3.72;;;11.10;99.90;;;;;;5008378;28;20064;-67
2022/12/29 10:59:46;;;;;;;13.88;5.07;;;11.00;99.90;;;;;;5007178;28;20368;-67
2022/12/29 11:02:12;;;;;;;10.93;3.13;;;11.00;99.90;;;;;;5006070;28;20033;-68
2022/12/29 11:04:56;;;;;;;8.05;2.97;;;11.00;99.90;;;;;;5017867;28;20028;-68
2022/12/29 11:07:21;;;;;;;;;;;11.10;99.90;;;;;;5000897;28;20489;-68
2022/12/29 11:09:48;;;;;;;23.33;6.53;;;11.10;99.90;;;;;;5003130;28;20024;-67
2022/12/29 11:12:29;;;;;;;12.77;4.30;;;11.00;99.90;;;;;;5001979;28;20029;-67
2022/12/29 11:15:02;;;;;;;17.38;6.82;;;11.00;99.90;;;;;;5002481;28;20088;-67
2022/12/29 11:17:28;;;;;;;11.20;3.83;;;11.10;99.90;;;;;;5004555;28;20022;-68
2022/12/29 11:19:53;;;;;;;7.22;2.92;;;11.00;99.90;;;;;;5008947;28;20030;-68
2022/12/29 11:22:26;;;;;;;8.80;3.13;;;11.10;99.90;;;;;;5010405;28;20073;-68
2022/12/29 11:24:53;;;;;;;9.75;2.45;;;11.10;99.90;;;;;;4994500;28;20038;-68
2022/12/29 11:27:24;;;;;;;7.40;2.60;;;11.10;99.90;;;;;;5002701;28;20033;-69
2022/12/29 11:29:52;;;;;;;15.60;4.75;;;11.10;99.90;;;;;;4986418;28;20050;-68
2022/12/29 11:32:23;;;;;;;16.05;6.70;;;11.20;99.90;;;;;;5005518;28;20061;-67
2022/12/29 11:34:49;;;;;;;20.63;6.50;;;11.10;99.90;;;;;;5013573;28;20040;-69
2022/12/29 11:37:38;;;;;;;17.10;7.60;;;11.10;99.90;;;;;;5021778;28;20025;-68
2022/12/29 11:40:19;;;;;;;13.32;5.47;;;11.10;99.90;;;;;;5009676;28;20052;-66
2022/12/29 11:42:56;;;;;;;7.35;2.88;;;11.10;99.90;;;;;;5010782;28;20101;-68
2022/12/29 11:45:28;;;;;;;9.48;2.40;;;11.10;99.90;;;;;;4998189;28;20057;-67
2022/12/29 11:48:07;;;;;;;8.40;2.00;;;11.20;99.90;;;;;;5000684;28;20014;-67
2022/12/29 11:50:35;;;;;;;24.92;7.75;;;11.20;99.90;;;;;;4996541;28;20038;-68
2022/12/29 11:53:26;;;;;;;20.70;5.60;;;11.20;99.90;;;;;;5000070;28;20056;-67
2022/12/29 11:55:55;;;;;;;6.57;2.05;;;11.20;99.90;;;;;;4999941;28;20496;-68
2022/12/29 11:58:32;;;;;;;9.45;2.38;;;11.20;99.90;;;;;;5000724;28;20038;-68
2022/12/29 12:01:23;;;;;;;7.40;2.03;;;11.20;99.90;;;;;;4999964;28;20076;-67
2022/12/29 12:04:00;;;;;;;7.75;2.70;;;11.10;99.90;;;;;;4997911;28;20030;-67
2022/12/29 12:06:28;;;;;;;5.43;2.13;;;11.10;99.90;;;;;;5006581;28;20033;-66
2022/12/29 12:09:16;;;;;;;9.32;3.38;;;11.00;99.90;;;;;;5002010;28;20045;-68
2022/12/29 12:11:45;;;;;;;7.95;1.67;;;11.00;99.90;;;;;;5001776;28;20044;-68
2022/12/29 12:14:38;;;;;;;7.68;1.73;;;10.90;99.90;;;;;;4996306;28;20037;-68
2022/12/29 12:17:18;;;;;;;3.83;1.48;;;10.90;99.90;;;;;;4999647;28;20033;-68
2022/12/29 12:19:48;;;;;;;5.10;1.10;;;10.90;99.90;;;;;;4999340;28;20033;-69
2022/12/29 12:22:21;;;;;;;8.60;1.75;;;10.90;99.90;;;;;;5001399;28;20033;-67
2022/12/29 12:25:06;;;;;;;6.13;2.38;;;10.90;99.90;;;;;;5001594;28;20561;-67
2022/12/29 12:27:48;;;;;;;10.63;3.25;;;10.90;99.90;;;;;;4999643;28;20160;-67
2022/12/29 12:30:19;;;;;;;10.80;2.35;;;10.90;99.90;;;;;;4984486;28;20049;-67
2022/12/29 12:32:57;;;;;;;11.18;2.85;;;10.90;99.90;;;;;;4999704;28;20275;-67
2022/12/29 12:35:26;;;;;;;10.25;2.47;;;10.90;99.90;;;;;;5001860;28;20032;-68
2022/12/29 12:38:07;;;;;;;10.80;2.10;;;10.90;99.90;;;;;;4999365;28;20053;-68
2022/12/29 12:40:47;;;;;;;6.40;1.42;;;10.90;99.90;;;;;;5000576;28;21382;-68
2022/12/29 12:43:43;;;;;;;14.57;4.18;;;10.90;99.90;;;;;;4999741;28;20097;-68
2022/12/29 12:46:35;;;;;;;8.43;1.65;;;10.80;99.90;;;;;;5005098;28;20115;-67
2022/12/29 12:49:48;;;;;;;7.53;2.45;;;10.80;99.90;;;;;;5005389;28;20037;-68
2022/12/29 12:52:29;;;;;;;13.38;2.75;;;10.80;99.90;;;;;;5030809;28;20430;-67
2022/12/29 12:55:29;;;;;;;12.02;2.53;;;10.80;99.90;;;;;;4999376;28;20030;-67
2022/12/29 12:57:57;;;;;;;9.50;3.33;;;10.90;99.90;;;;;;5003655;28;20028;-68
2022/12/29 13:00:23;;;;;;;13.00;3.40;;;10.90;99.90;;;;;;5008526;28;20026;-69
2022/12/29 13:03:11;;;;;;;19.23;5.50;;;10.90;99.90;;;;;;5006291;28;20097;-69
2022/12/29 13:05:58;;;;;;;5.95;1.98;;;10.90;99.90;;;;;;5018506;28;20033;-68
2022/12/29 13:08:29;;;;;;;13.48;3.90;;;11.00;99.90;;;;;;5011599;28;20083;-68
2022/12/29 13:11:20;;;;;;;6.45;1.75;;;11.00;99.90;;;;;;5011680;28;20187;-66
2022/12/29 13:13:54;;;;;;;5.78;2.15;;;11.00;99.90;;;;;;5005624;28;20053;-68
2022/12/29 13:16:34;;;;;;;12.18;2.92;;;11.00;99.90;;;;;;4998479;28;20018;-67
2022/12/29 13:19:19;;;;;;;10.13;3.08;;;11.00;99.90;;;;;;5006969;28;20042;-68
2022/12/29 13:22:13;;;;;;;15.00;2.88;;;10.90;99.90;;;;;;5014873;28;20022;-67
2022/12/29 13:24:58;;;;;;;7.22;2.22;;;11.00;99.90;;;;;;5007727;28;20034;-69
2022/12/29 13:27:31;;;;;;;;;;;11.00;99.90;;;;;;5004403;23;20055;-63
2022/12/29 13:30:10;;;;;;;8.15;1.58;;;11.00;99.90;;;;;;4942507;28;19914;-63
2022/12/29 13:33:05;;;;;;;11.15;2.60;;;11.00;99.90;;;;;;4961599;28;20109;-64
2022/12/29 13:35:43;;;;;;;5.32;1.55;;;10.90;99.90;;;;;;4969759;28;20046;-64